Time;durP1;ratioP1;P1;durP2;ratioP2;P2;SDS_P1;SDS_P2;PMS_P1;PMS_P2;Temp;Humidity;BMP_temperature;BMP_pressure;BME280_temperature;BME280_humidity;BME280_pressure;Samples;Min_cycle;Max_cycle;Signal;HPM_P1;HPM_P2
2022/03/06 00:00:24;;;;;;;32.13;16.48;;;;;;;-144.65;100.00;64500.88;5082356;28;20028;-75
2022/03/06 00:02:50;;;;;;;31.90;15.25;;;;;;;-144.65;100.00;64500.88;5083286;28;20039;-75
2022/03/06 00:05:15;;;;;;;32.63;16.90;;;;;;;-144.65;100.00;64500.88;5086415;28;20082;-74
2022/03/06 00:07:41;;;;;;;32.92;16.10;;;;;;;-144.65;100.00;64500.88;5093137;28;20446;-74
2022/03/06 00:10:06;;;;;;;34.03;15.43;;;;;;;-144.65;100.00;64500.88;5093497;28;20054;-74
2022/03/06 00:12:32;;;;;;;31.05;16.45;;;;;;;-144.65;100.00;64500.88;5075247;28;20039;-75
2022/03/06 00:14:57;;;;;;;35.38;15.98;;;;;;;-144.65;100.00;64500.88;5093538;28;20107;-74
2022/03/06 00:17:23;;;;;;;31.67;15.30;;;;;;;-144.65;100.00;64500.88;5093448;28;20512;-75
2022/03/06 00:19:48;;;;;;;29.90;16.25;;;;;;;-144.65;100.00;64500.88;5093176;28;20398;-75
2022/03/06 00:22:14;;;;;;;27.75;15.73;;;;;;;-144.65;100.00;64500.88;5093321;28;20020;-74
2022/03/06 00:24:39;;;;;;;31.38;15.43;;;;;;;-144.65;100.00;64500.88;5093179;28;20205;-75
2022/03/06 00:27:05;;;;;;;36.22;17.15;;;;;;;-144.65;100.00;64500.88;5092801;28;20028;-75
2022/03/06 00:29:30;;;;;;;32.97;15.95;;;;;;;-144.65;100.00;64500.88;5093003;28;20032;-75
2022/03/06 00:31:55;;;;;;;32.47;17.17;;;;;;;-144.65;100.00;64500.88;5092906;28;20085;-74
2022/03/06 00:34:21;;;;;;;30.67;15.45;;;;;;;-144.65;100.00;64500.88;5092590;28;20056;-74
2022/03/06 00:36:47;;;;;;;30.33;15.63;;;;;;;-144.65;100.00;64500.88;5092648;28;20099;-75
2022/03/06 00:39:12;;;;;;;33.08;16.13;;;;;;;-144.65;100.00;64500.88;5092874;28;20032;-75
2022/03/06 00:41:38;;;;;;;33.55;16.02;;;;;;;-144.65;100.00;64500.88;5108495;28;20027;-74
2022/03/06 00:44:04;;;;;;;31.00;15.18;;;;;;;-144.65;100.00;64500.88;5091485;28;20009;-74
2022/03/06 00:46:29;;;;;;;29.58;14.70;;;;;;;-144.65;100.00;64500.88;5096174;28;20089;-74
2022/03/06 00:48:55;;;;;;;36.55;15.77;;;;;;;-144.65;100.00;64500.88;5089427;28;20389;-74
2022/03/06 00:51:20;;;;;;;25.80;14.48;;;;;;;-144.65;100.00;64500.88;5087888;28;20472;-74
2022/03/06 00:53:46;;;;;;;31.17;14.73;;;;;;;-144.65;100.00;64500.88;5087034;28;20516;-74
2022/03/06 00:56:11;;;;;;;30.67;13.52;;;;;;;-144.65;100.00;64500.88;5090799;28;20024;-74
2022/03/06 00:58:37;;;;;;;30.92;15.13;;;;;;;-144.65;100.00;64500.88;5091065;28;20024;-74
2022/03/06 01:01:04;;;;;;;29.88;15.43;;;;;;;-144.65;100.00;64500.88;5084173;28;20077;-75
2022/03/06 01:03:29;;;;;;;30.73;15.98;;;;;;;-144.65;100.00;64500.88;5086976;28;20019;-74
2022/03/06 01:05:55;;;;;;;32.05;16.15;;;;;;;-144.65;100.00;64500.88;5079008;28;20025;-75
2022/03/06 01:08:21;;;;;;;29.52;16.30;;;;;;;-144.65;100.00;64500.88;5078750;28;20008;-74
2022/03/06 01:10:48;;;;;;;30.35;14.90;;;;;;;-144.65;100.00;64500.88;5077542;28;20024;-74
2022/03/06 01:13:14;;;;;;;27.92;15.50;;;;;;;-144.65;100.00;64500.88;5080799;28;20583;-74
2022/03/06 01:15:40;;;;;;;31.67;15.40;;;;;;;-144.65;100.00;64500.88;5082295;28;20128;-74
2022/03/06 01:18:07;;;;;;;27.77;14.18;;;;;;;-144.65;100.00;64500.88;5085125;28;20484;-74
2022/03/06 01:20:38;;;;;;;32.50;14.38;;;;;;;-144.65;100.00;64500.88;5079203;28;20393;-74
2022/03/06 01:23:04;;;;;;;27.55;14.63;;;;;;;-144.65;100.00;64500.88;5081858;28;20169;-74
2022/03/06 01:25:31;;;;;;;32.83;15.55;;;;;;;-144.65;100.00;64500.88;5085940;28;20024;-74
2022/03/06 01:27:56;;;;;;;28.55;14.75;;;;;;;-144.65;100.00;64500.88;5081475;28;20365;-74
2022/03/06 01:30:22;;;;;;;33.92;15.25;;;;;;;-144.65;100.00;64500.88;5089852;28;20020;-75
2022/03/06 01:32:49;;;;;;;26.10;13.23;;;;;;;-144.65;100.00;64500.88;5084238;28;20058;-74
2022/03/06 01:35:15;;;;;;;26.73;12.55;;;;;;;-144.65;100.00;64500.88;5072560;28;20024;-76
2022/03/06 01:37:40;;;;;;;38.55;15.52;;;;;;;-144.65;100.00;64500.88;5072344;28;20502;-74
2022/03/06 01:40:07;;;;;;;28.25;14.00;;;;;;;-144.65;100.00;64500.88;5070342;28;20474;-74
2022/03/06 01:42:32;;;;;;;22.83;11.98;;;;;;;-144.65;100.00;64500.88;5071450;28;20121;-74
2022/03/06 01:44:58;;;;;;;29.27;13.27;;;;;;;-144.65;100.00;64500.88;5071485;28;20488;-74
2022/03/06 01:47:40;;;;;;;30.23;14.45;;;;;;;-144.65;100.00;64500.88;5071927;28;20024;-74
2022/03/06 01:50:13;;;;;;;26.75;13.80;;;;;;;-144.65;100.00;64500.88;5071798;28;20839;-74
2022/03/06 01:52:39;;;;;;;32.47;14.68;;;;;;;-144.65;100.00;64500.88;5073210;28;20541;-74
2022/03/06 01:55:05;;;;;;;26.67;12.75;;;;;;;-144.65;100.00;64500.88;5072592;28;20473;-75
2022/03/06 01:57:32;;;;;;;35.17;16.25;;;;;;;-144.65;100.00;64500.88;5072297;28;20020;-76
2022/03/06 01:59:59;;;;;;;26.20;13.52;;;;;;;-144.65;100.00;64500.88;5071275;28;20032;-74
2022/03/06 02:02:25;;;;;;;30.35;13.85;;;;;;;-144.65;100.00;64500.88;5071753;28;20481;-74
2022/03/06 02:04:50;;;;;;;29.83;15.00;;;;;;;-144.65;100.00;64500.88;5070414;28;20115;-74
2022/03/06 02:07:16;;;;;;;25.95;13.68;;;;;;;-144.65;100.00;64500.88;5070880;28;20088;-74
2022/03/06 02:09:41;;;;;;;27.08;13.75;;;;;;;-144.65;100.00;64500.88;5071523;28;20036;-74
2022/03/06 02:12:23;;;;;;;32.33;15.38;;;;;;;-144.65;100.00;64500.88;5072290;28;20024;-74
2022/03/06 02:14:52;;;;;;;31.77;14.73;;;;;;;-144.65;100.00;64500.88;5070762;28;20017;-74
2022/03/06 02:17:18;;;;;;;31.35;14.65;;;;;;;-144.65;100.00;64500.88;5069119;28;20101;-73
2022/03/06 02:20:14;;;;;;;25.90;13.73;;;;;;;-144.65;100.00;64500.88;5070360;28;20074;-74
2022/03/06 02:22:41;;;;;;;;;;;;;;;-144.65;100.00;64500.88;5068502;28;20047;-75
2022/03/06 02:25:14;;;;;;;31.00;14.60;;;;;;;-144.65;100.00;64500.88;5068644;28;20039;-75
2022/03/06 02:27:40;;;;;;;28.13;13.23;;;;;;;-144.65;100.00;64500.88;5069577;28;20393;-74
2022/03/06 02:30:15;;;;;;;31.20;14.52;;;;;;;-144.65;100.00;64500.88;5070411;28;20032;-74
2022/03/06 02:32:44;;;;;;;28.13;14.43;;;;;;;-144.65;100.00;64500.88;5071650;28;20632;-74
2022/03/06 02:35:09;;;;;;;33.50;15.88;;;;;;;-144.65;100.00;64500.88;5052954;28;20029;-74
2022/03/06 02:37:35;;;;;;;29.55;14.88;;;;;;;-144.65;100.00;64500.88;5070503;28;20033;-73
2022/03/06 02:40:03;;;;;;;30.95;14.05;;;;;;;-144.65;100.00;64500.88;5070121;28;20032;-74
2022/03/06 02:42:31;;;;;;;28.23;12.88;;;;;;;-144.65;100.00;64500.88;5069036;28;20055;-74
2022/03/06 02:44:58;;;;;;;29.27;14.40;;;;;;;-144.65;100.00;64500.88;5068258;28;20059;-74
2022/03/06 02:47:24;;;;;;;27.30;14.02;;;;;;;-144.65;100.00;64500.88;5068549;28;20036;-74
2022/03/06 02:49:50;;;;;;;27.13;13.43;;;;;;;-144.65;100.00;64500.88;5069858;28;20385;-74
2022/03/06 02:52:16;;;;;;;32.80;14.65;;;;;;;-144.65;100.00;64500.88;5069470;28;20044;-74
2022/03/06 02:54:41;;;;;;;32.75;15.20;;;;;;;-144.65;100.00;64500.88;5068813;28;20028;-74
2022/03/06 02:57:07;;;;;;;29.35;14.45;;;;;;;-144.65;100.00;64500.88;5069339;28;20466;-74
2022/03/06 02:59:33;;;;;;;28.77;14.00;;;;;;;-144.65;100.00;64500.88;5069689;28;20119;-73
2022/03/06 03:01:59;;;;;;;32.35;15.43;;;;;;;-144.65;100.00;64500.88;5070006;28;20107;-73
2022/03/06 03:04:24;;;;;;;28.38;14.80;;;;;;;-144.65;100.00;64500.88;5077461;28;20500;-73
2022/03/06 03:06:50;;;;;;;31.60;14.75;;;;;;;-144.65;100.00;64500.88;5072931;28;20028;-74
2022/03/06 03:09:21;;;;;;;25.00;12.57;;;;;;;-144.65;100.00;64500.88;5073314;28;20451;-73
2022/03/06 03:11:47;;;;;;;32.10;16.13;;;;;;;-144.65;100.00;64500.88;5089122;28;20024;-75
2022/03/06 03:14:13;;;;;;;26.77;13.65;;;;;;;-144.65;100.00;64500.88;5089107;28;20082;-72
2022/03/06 03:16:39;;;;;;;30.90;15.05;;;;;;;-144.65;100.00;64500.88;5088168;28;20040;-73
2022/03/06 03:19:04;;;;;;;25.75;13.30;;;;;;;-144.65;100.00;64500.88;5089811;28;20035;-73
2022/03/06 03:21:30;;;;;;;28.02;14.25;;;;;;;-144.65;100.00;64500.88;5100989;28;20048;-72
2022/03/06 03:23:55;;;;;;;27.10;13.18;;;;;;;-144.65;100.00;64500.88;5069341;28;20020;-73
2022/03/06 03:26:21;;;;;;;27.70;13.98;;;;;;;-144.65;100.00;64500.88;5068972;28;20073;-74
2022/03/06 03:28:46;;;;;;;28.20;13.90;;;;;;;-144.65;100.00;64500.88;5070008;28;20420;-72
2022/03/06 03:31:11;;;;;;;26.10;13.45;;;;;;;-144.65;100.00;64500.88;5073493;28;20036;-73
2022/03/06 03:33:37;;;;;;;29.33;13.23;;;;;;;-144.65;100.00;64500.88;5073640;28;20025;-72
2022/03/06 03:36:03;;;;;;;29.90;14.23;;;;;;;-144.65;100.00;64500.88;5072122;28;20035;-72
2022/03/06 03:38:28;;;;;;;27.90;14.10;;;;;;;-144.65;100.00;64500.88;5073184;28;20147;-73
2022/03/06 03:40:54;;;;;;;27.58;13.93;;;;;;;-144.65;100.00;64500.88;5071186;28;20371;-72
2022/03/06 03:43:19;;;;;;;31.73;14.27;;;;;;;-144.65;100.00;64500.88;5072068;28;20028;-72
2022/03/06 03:45:44;;;;;;;29.58;14.45;;;;;;;-144.65;100.00;64500.88;5073073;28;20504;-73
2022/03/06 03:48:10;;;;;;;29.40;15.45;;;;;;;-144.65;100.00;64500.88;5073439;28;20032;-72
2022/03/06 03:50:35;;;;;;;26.40;13.60;;;;;;;-144.65;100.00;64500.88;5085696;28;20446;-72
2022/03/06 03:53:01;;;;;;;28.55;13.85;;;;;;;-144.65;100.00;64500.88;5091228;28;20051;-72
2022/03/06 03:55:26;;;;;;;27.75;14.30;;;;;;;-144.65;100.00;64500.88;5090272;28;20030;-73
2022/03/06 03:57:51;;;;;;;25.30;12.65;;;;;;;-144.65;100.00;64500.88;5090405;28;20020;-74
2022/03/06 04:00:17;;;;;;;27.60;13.63;;;;;;;-144.65;100.00;64500.88;5092384;28;20043;-72
2022/03/06 04:02:42;;;;;;;26.05;12.10;;;;;;;-144.65;100.00;64500.88;5092697;28;20028;-72
2022/03/06 04:05:08;;;;;;;27.73;13.73;;;;;;;-144.65;100.00;64500.88;5092518;28;20473;-73
2022/03/06 04:07:34;;;;;;;24.08;12.68;;;;;;;-144.65;100.00;64500.88;5092522;28;20052;-72
2022/03/06 04:09:59;;;;;;;27.95;12.75;;;;;;;-144.65;100.00;64500.88;5093055;28;20125;-72
2022/03/06 04:12:25;;;;;;;28.15;13.02;;;;;;;-144.65;100.00;64500.88;5091891;28;20032;-73
2022/03/06 04:14:50;;;;;;;27.42;12.95;;;;;;;-144.65;100.00;64500.88;5092746;28;20059;-76
2022/03/06 04:17:16;;;;;;;28.95;14.63;;;;;;;-144.65;100.00;64500.88;5092564;28;20024;-73
2022/03/06 04:19:41;;;;;;;31.83;13.43;;;;;;;-144.65;100.00;64500.88;5093185;28;20040;-73
2022/03/06 04:22:06;;;;;;;29.00;13.82;;;;;;;-144.65;100.00;64500.88;5093516;28;20030;-73
2022/03/06 04:24:32;;;;;;;32.78;15.20;;;;;;;-144.65;100.00;64500.88;5093966;28;20115;-73
2022/03/06 04:26:58;;;;;;;26.40;13.80;;;;;;;-144.65;100.00;64500.88;5091890;28;20050;-73
2022/03/06 04:29:23;;;;;;;34.67;15.55;;;;;;;-144.65;100.00;64500.88;5092409;28;20020;-72
2022/03/06 04:31:49;;;;;;;28.25;15.07;;;;;;;-144.65;100.00;64500.88;5091520;28;20023;-72
2022/03/06 04:34:15;;;;;;;27.30;13.90;;;;;;;-144.65;100.00;64500.88;5092748;28;20452;-73
2022/03/06 04:36:40;;;;;;;27.13;13.43;;;;;;;-144.65;100.00;64500.88;5092584;28;20115;-72
2022/03/06 04:39:06;;;;;;;31.08;14.77;;;;;;;-144.65;100.00;64500.88;5092218;28;20039;-72
2022/03/06 04:41:32;;;;;;;31.33;15.27;;;;;;;-144.65;100.00;64500.88;5091640;28;20485;-72
2022/03/06 04:43:57;;;;;;;30.17;14.95;;;;;;;-144.65;100.00;64500.88;5091382;28;20597;-72
2022/03/06 04:46:24;;;;;;;31.65;15.48;;;;;;;-144.65;100.00;64500.88;5092086;28;20107;-72
2022/03/06 04:48:51;;;;;;;31.65;14.82;;;;;;;-144.65;100.00;64500.88;5092449;28;20108;-72
2022/03/06 04:51:16;;;;;;;32.20;15.50;;;;;;;-144.65;100.00;64500.88;5092145;28;20020;-72
2022/03/06 04:53:42;;;;;;;31.80;15.38;;;;;;;-144.65;100.00;64500.88;5092324;28;20145;-73
2022/03/06 04:56:08;;;;;;;32.58;16.33;;;;;;;-144.65;100.00;64500.88;5092286;28;20036;-73
2022/03/06 04:58:33;;;;;;;32.75;15.13;;;;;;;-144.65;100.00;64500.88;5090098;28;20036;-72
2022/03/06 05:00:59;;;;;;;32.03;15.25;;;;;;;-144.65;100.00;64500.88;5092256;28;20031;-72
2022/03/06 05:03:24;;;;;;;30.83;15.23;;;;;;;-144.65;100.00;64500.88;5092304;28;20484;-73
2022/03/06 05:05:50;;;;;;;28.77;15.05;;;;;;;-144.65;100.00;64500.88;5092092;28;20027;-72
2022/03/06 05:08:16;;;;;;;33.00;15.65;;;;;;;-144.65;100.00;64500.88;5092545;28;20059;-73
2022/03/06 05:10:42;;;;;;;31.60;16.25;;;;;;;-144.65;100.00;64500.88;5091924;28;20542;-72
2022/03/06 05:13:09;;;;;;;49.28;24.17;;;;;;;-144.65;100.00;64500.88;5091317;28;20039;-72
2022/03/06 05:15:35;;;;;;;30.23;15.68;;;;;;;-144.65;100.00;64500.88;5092289;28;20027;-72
2022/03/06 05:18:01;;;;;;;33.53;16.05;;;;;;;-144.65;100.00;64500.88;5094063;28;20027;-74
2022/03/06 05:20:27;;;;;;;36.45;17.02;;;;;;;-144.65;100.00;64500.88;5092570;28;20388;-72
2022/03/06 05:22:52;;;;;;;32.25;16.02;;;;;;;-144.65;100.00;64500.88;5092115;28;20101;-72
2022/03/06 05:25:17;;;;;;;30.42;15.27;;;;;;;-144.65;100.00;64500.88;5092270;28;20020;-72
2022/03/06 05:27:43;;;;;;;30.00;14.80;;;;;;;-144.65;100.00;64500.88;5090940;28;20023;-72
2022/03/06 05:30:10;;;;;;;31.17;16.35;;;;;;;-144.65;100.00;64500.88;5091363;28;20028;-72
2022/03/06 05:32:35;;;;;;;38.03;16.65;;;;;;;-144.65;100.00;64500.88;5091272;28;20030;-72
2022/03/06 05:35:01;;;;;;;31.85;16.23;;;;;;;-144.65;100.00;64500.88;5073285;28;20028;-72
2022/03/06 05:37:27;;;;;;;31.08;15.15;;;;;;;-144.65;100.00;64500.88;5091593;28;20032;-73
2022/03/06 05:39:53;;;;;;;32.20;16.25;;;;;;;-144.65;100.00;64500.88;5090425;28;20028;-73
2022/03/06 05:42:19;;;;;;;34.70;16.23;;;;;;;-144.65;100.00;64500.88;5090970;28;21505;-72
2022/03/06 05:44:45;;;;;;;32.50;16.10;;;;;;;-144.65;100.00;64500.88;5091161;28;20027;-72
2022/03/06 05:47:10;;;;;;;29.95;14.90;;;;;;;-144.65;100.00;64500.88;5091383;28;20040;-72
2022/03/06 05:49:35;;;;;;;32.50;16.25;;;;;;;-144.65;100.00;64500.88;5090300;28;20647;-72
2022/03/06 05:52:02;;;;;;;30.73;15.13;;;;;;;-144.65;100.00;64500.88;5090341;28;20020;-72
2022/03/06 05:54:28;;;;;;;36.90;18.05;;;;;;;-144.65;100.00;64500.88;5091407;28;20027;-72
2022/03/06 05:56:54;;;;;;;28.33;14.48;;;;;;;-144.65;100.00;64500.88;5090610;28;20119;-72
2022/03/06 05:59:19;;;;;;;37.42;16.77;;;;;;;-144.65;100.00;64500.88;5090660;28;20472;-75
2022/03/06 06:01:45;;;;;;;27.75;14.35;;;;;;;-144.65;100.00;64500.88;5087446;28;20118;-72
2022/03/06 06:04:12;;;;;;;29.90;15.35;;;;;;;-144.65;100.00;64500.88;5079119;28;20027;-72
2022/03/06 06:06:38;;;;;;;31.17;16.55;;;;;;;-144.65;100.00;64500.88;5090410;28;20385;-72
2022/03/06 06:09:04;;;;;;;29.75;14.63;;;;;;;-144.65;100.00;64500.88;5074866;28;20031;-72
2022/03/06 06:11:29;;;;;;;34.63;16.58;;;;;;;-144.65;100.00;64500.88;5070344;28;20039;-72
2022/03/06 06:13:55;;;;;;;32.47;15.57;;;;;;;-144.65;100.00;64500.88;5069597;28;20017;-73
2022/03/06 06:16:20;;;;;;;28.35;15.18;;;;;;;-144.65;100.00;64500.88;5070802;28;20398;-72
2022/03/06 06:18:46;;;;;;;34.20;16.15;;;;;;;-144.65;100.00;64500.88;5069590;28;20027;-72
2022/03/06 06:21:11;;;;;;;27.13;14.00;;;;;;;-144.65;100.00;64500.88;5086135;28;20495;-73
2022/03/06 06:23:37;;;;;;;26.00;14.55;;;;;;;-144.65;100.00;64500.88;5090666;28;20027;-72
2022/03/06 06:26:02;;;;;;;29.63;15.73;;;;;;;-144.65;100.00;64500.88;5090266;28;20073;-72
2022/03/06 06:28:28;;;;;;;29.73;15.68;;;;;;;-144.65;100.00;64500.88;5089502;28;20540;-73
2022/03/06 06:30:53;;;;;;;28.45;14.00;;;;;;;-144.65;100.00;64500.88;5090125;28;20480;-73
2022/03/06 06:33:19;;;;;;;30.15;14.77;;;;;;;-144.65;100.00;64500.88;5105892;28;20028;-71
2022/03/06 06:35:44;;;;;;;30.20;15.05;;;;;;;-144.65;100.00;64500.88;5107350;28;20072;-72
2022/03/06 06:38:09;;;;;;;27.52;14.77;;;;;;;-144.65;100.00;64500.88;5091611;28;20047;-75
2022/03/06 06:40:35;;;;;;;32.10;16.40;;;;;;;-144.65;100.00;64500.88;5091867;28;20028;-75
2022/03/06 06:43:01;;;;;;;38.70;19.73;;;;;;;-144.65;100.00;64500.88;5090797;28;20024;-71
2022/03/06 06:45:28;;;;;;;38.53;18.48;;;;;;;-144.65;100.00;64500.88;5090324;28;20020;-72
2022/03/06 06:47:54;;;;;;;29.90;14.63;;;;;;;-144.65;100.00;64500.88;5090588;28;20043;-72
2022/03/06 06:50:20;;;;;;;95.57;48.85;;;;;;;-144.65;100.00;64500.88;5090633;28;20028;-74
2022/03/06 06:52:45;;;;;;;32.13;14.95;;;;;;;-144.65;100.00;64500.88;5089999;28;20083;-75
2022/03/06 06:55:10;;;;;;;30.27;14.35;;;;;;;-144.65;100.00;64500.88;5090276;28;20445;-75
2022/03/06 06:57:36;;;;;;;23.65;12.90;;;;;;;-144.65;100.00;64500.88;5075632;28;20021;-73
2022/03/06 07:00:03;;;;;;;24.80;12.07;;;;;;;-144.65;100.00;64500.88;5070155;28;20032;-72
2022/03/06 07:02:29;;;;;;;23.33;11.32;;;;;;;-144.65;100.00;64500.88;5070207;28;20025;-72
2022/03/06 07:04:54;;;;;;;25.65;10.93;;;;;;;-144.65;100.00;64500.88;5074448;28;20078;-72
2022/03/06 07:07:20;;;;;;;22.60;11.18;;;;;;;-144.65;100.00;64500.88;5074848;28;20025;-73
2022/03/06 07:09:46;;;;;;;20.30;10.07;;;;;;;-144.65;100.00;64500.88;5074408;28;20028;-75
2022/03/06 07:12:12;;;;;;;19.63;10.80;;;;;;;-144.65;100.00;64500.88;5072931;28;20119;-75
2022/03/06 07:14:37;;;;;;;19.98;10.85;;;;;;;-144.65;100.00;64500.88;5074364;28;20110;-75
2022/03/06 07:17:03;;;;;;;18.73;10.15;;;;;;;-144.65;100.00;64500.88;5074236;28;20021;-74
2022/03/06 07:19:29;;;;;;;19.25;10.25;;;;;;;-144.65;100.00;64500.88;5073932;28;20572;-74
2022/03/06 07:21:54;;;;;;;18.85;9.65;;;;;;;-144.65;100.00;64500.88;5074382;28;20040;-74
2022/03/06 07:24:19;;;;;;;18.15;9.38;;;;;;;-144.65;100.00;64500.88;5072874;28;20469;-73
2022/03/06 07:26:45;;;;;;;20.30;9.75;;;;;;;-144.65;100.00;64500.88;5073910;28;20071;-72
2022/03/06 07:29:10;;;;;;;22.42;10.38;;;;;;;-144.65;100.00;64500.88;5072818;28;20199;-75
2022/03/06 07:31:36;;;;;;;18.95;10.48;;;;;;;-144.65;100.00;64500.88;5073825;28;20439;-72
2022/03/06 07:34:02;;;;;;;19.17;10.60;;;;;;;-144.65;100.00;64500.88;5073734;28;20028;-74
2022/03/06 07:36:27;;;;;;;17.30;10.05;;;;;;;-144.65;100.00;64500.88;5073924;28;20078;-72
2022/03/06 07:38:53;;;;;;;20.65;11.35;;;;;;;-144.65;100.00;64500.88;5072686;28;20393;-72
2022/03/06 07:41:18;;;;;;;20.08;11.25;;;;;;;-144.65;100.00;64500.88;5073820;28;20040;-71
2022/03/06 07:43:45;;;;;;;18.70;10.02;;;;;;;-144.65;100.00;64500.88;5073769;28;20024;-73
2022/03/06 07:46:11;;;;;;;22.50;10.57;;;;;;;-144.65;100.00;64500.88;5073694;28;20082;-73
2022/03/06 07:48:37;;;;;;;19.58;9.98;;;;;;;-144.65;100.00;64500.88;5073372;28;20031;-74
2022/03/06 07:51:03;;;;;;;19.50;10.98;;;;;;;-144.65;100.00;64500.88;5073524;28;20024;-74
2022/03/06 07:53:29;;;;;;;20.27;9.98;;;;;;;-144.65;100.00;64500.88;5073433;28;20076;-73
2022/03/06 07:55:54;;;;;;;22.10;10.57;;;;;;;-144.65;100.00;64500.88;5073521;28;20046;-72
2022/03/06 07:58:20;;;;;;;20.70;10.13;;;;;;;-144.65;100.00;64500.88;5109302;28;20433;-73
2022/03/06 08:00:45;;;;;;;23.38;10.93;;;;;;;-144.65;100.00;64500.88;5093408;28;20119;-72
2022/03/06 08:03:11;;;;;;;16.75;10.13;;;;;;;-144.65;100.00;64500.88;5093498;28;20106;-72
2022/03/06 08:05:36;;;;;;;24.67;11.02;;;;;;;-144.65;100.00;64500.88;5093815;28;20434;-72
2022/03/06 08:08:02;;;;;;;21.98;11.05;;;;;;;-144.65;100.00;64500.88;5108942;28;20473;-72
2022/03/06 08:10:27;;;;;;;21.58;10.40;;;;;;;-144.65;100.00;64500.88;5109006;28;20047;-75
2022/03/06 08:12:53;;;;;;;19.60;10.82;;;;;;;-144.65;100.00;64500.88;5093597;28;20062;-72
2022/03/06 08:15:19;;;;;;;21.85;10.48;;;;;;;-144.65;100.00;64500.88;5076048;28;20032;-72
2022/03/06 08:17:44;;;;;;;18.35;11.25;;;;;;;-144.65;100.00;64500.88;5092451;28;20012;-75
2022/03/06 08:20:10;;;;;;;19.95;10.80;;;;;;;-144.65;100.00;64500.88;5086493;28;20036;-74
2022/03/06 08:22:35;;;;;;;22.27;10.63;;;;;;;-144.65;100.00;64500.88;5074101;28;20033;-74
2022/03/06 08:25:02;;;;;;;19.73;10.43;;;;;;;-144.65;100.00;64500.88;5078551;28;20081;-72
2022/03/06 08:27:27;;;;;;;19.23;9.55;;;;;;;-144.65;100.00;64500.88;5089567;28;20031;-72
2022/03/06 08:29:53;;;;;;;21.80;9.98;;;;;;;-144.65;100.00;64500.88;5080869;28;20024;-72
2022/03/06 08:32:18;;;;;;;19.83;10.10;;;;;;;-144.65;100.00;64500.88;5084515;28;20085;-74
2022/03/06 08:34:44;;;;;;;18.17;9.57;;;;;;;-144.65;100.00;64500.88;5084590;28;20024;-72
2022/03/06 08:37:10;;;;;;;23.67;11.27;;;;;;;-144.65;100.00;64500.88;5081374;28;20029;-72
2022/03/06 08:39:35;;;;;;;27.55;11.23;;;;;;;-144.65;100.00;64500.88;5084032;28;20043;-72
2022/03/06 08:42:01;;;;;;;17.63;10.52;;;;;;;-144.65;100.00;64500.88;5081586;28;20024;-72
2022/03/06 08:44:27;;;;;;;22.40;10.88;;;;;;;-144.65;100.00;64500.88;5079943;28;20042;-73
2022/03/06 08:46:52;;;;;;;16.35;9.60;;;;;;;-144.65;100.00;64500.88;5082174;28;20496;-73
2022/03/06 08:49:18;;;;;;;20.98;9.85;;;;;;;-144.65;100.00;64500.88;5083997;28;20033;-75
2022/03/06 08:51:43;;;;;;;21.10;11.27;;;;;;;-144.65;100.00;64500.88;5077351;28;20701;-73
2022/03/06 08:54:09;;;;;;;20.73;9.82;;;;;;;-144.65;100.00;64500.88;5087796;28;20036;-74
2022/03/06 08:56:34;;;;;;;18.80;10.73;;;;;;;-144.65;100.00;64500.88;5085058;28;20130;-74
2022/03/06 08:59:00;;;;;;;20.23;10.45;;;;;;;-144.65;100.00;64500.88;5081897;28;20112;-75
2022/03/06 09:01:25;;;;;;;19.85;10.93;;;;;;;-144.65;100.00;64500.88;5081676;28;20111;-75
2022/03/06 09:03:51;;;;;;;19.38;9.52;;;;;;;-144.65;100.00;64500.88;5084781;28;20051;-73
2022/03/06 09:06:16;;;;;;;22.23;10.43;;;;;;;-144.65;100.00;64500.88;5085758;28;20032;-75
2022/03/06 09:08:42;;;;;;;19.67;10.20;;;;;;;-144.65;100.00;64500.88;5080055;28;20027;-73
2022/03/06 09:11:07;;;;;;;22.95;11.48;;;;;;;-144.65;100.00;64500.88;5081805;28;20481;-74
2022/03/06 09:13:34;;;;;;;19.13;10.52;;;;;;;-144.65;100.00;64500.88;5080585;28;20503;-74
2022/03/06 09:16:00;;;;;;;15.98;8.20;;;;;;;-144.65;100.00;64500.88;5104178;28;20423;-73
2022/03/06 09:18:25;;;;;;;16.98;9.55;;;;;;;-144.65;100.00;64500.88;5080212;28;20032;-73
2022/03/06 09:20:50;;;;;;;20.00;9.95;;;;;;;-144.65;100.00;64500.88;5088905;28;20020;-74
2022/03/06 09:23:19;;;;;;;18.25;10.05;;;;;;;-144.65;100.00;64500.88;5078639;28;20112;-73
2022/03/06 09:25:44;;;;;;;18.00;10.27;;;;;;;-144.65;100.00;64500.88;5082951;28;20104;-73
2022/03/06 09:28:10;;;;;;;18.13;9.65;;;;;;;-144.65;100.00;64500.88;5084896;28;20108;-75
2022/03/06 09:30:36;;;;;;;21.60;10.38;;;;;;;-144.65;100.00;64500.88;5088999;28;20033;-73
2022/03/06 09:33:01;;;;;;;22.40;9.60;;;;;;;-144.65;100.00;64500.88;5084210;28;20634;-73
2022/03/06 09:35:27;;;;;;;17.98;9.43;;;;;;;-144.65;100.00;64500.88;5083953;28;20051;-76
2022/03/06 09:37:53;;;;;;;16.98;9.02;;;;;;;-144.65;100.00;64500.88;5080597;28;20016;-75
2022/03/06 09:40:18;;;;;;;17.45;8.88;;;;;;;-144.65;100.00;64500.88;5085948;28;20024;-74
2022/03/06 09:42:44;;;;;;;22.08;9.57;;;;;;;-144.65;100.00;64500.88;5086984;28;20039;-73
2022/03/06 09:45:12;;;;;;;19.92;9.52;;;;;;;-144.65;100.00;64500.88;5086393;28;20067;-73
2022/03/06 09:47:38;;;;;;;19.65;9.32;;;;;;;-144.65;100.00;64500.88;5089863;28;20020;-73
2022/03/06 09:50:06;;;;;;;17.00;9.27;;;;;;;-144.65;100.00;64500.88;5090140;28;20489;-73
2022/03/06 09:52:32;;;;;;;15.32;9.20;;;;;;;-144.65;100.00;64500.88;5073971;28;20480;-72
2022/03/06 09:54:59;;;;;;;26.77;11.18;;;;;;;-144.65;100.00;64500.88;5076810;28;20044;-73
2022/03/06 09:57:24;;;;;;;26.95;10.43;;;;;;;-144.65;100.00;64500.88;5085475;28;20438;-73
2022/03/06 09:59:50;;;;;;;19.38;10.10;;;;;;;-144.65;100.00;64500.88;5078482;28;20036;-70
2022/03/06 10:02:16;;;;;;;16.98;9.43;;;;;;;-144.65;100.00;64500.88;5084242;28;20119;-71
2022/03/06 10:04:42;;;;;;;15.55;8.80;;;;;;;-144.65;100.00;64500.88;5087808;28;20035;-71
2022/03/06 10:07:19;;;;;;;20.45;11.05;;;;;;;-144.65;100.00;64500.88;5076734;28;20036;-71
2022/03/06 10:09:54;;;;;;;23.80;12.55;;;;;;;-144.65;100.00;64500.88;5070783;28;20028;-71
2022/03/06 10:12:23;;;;;;;18.15;10.32;;;;;;;-144.65;100.00;64500.88;5087121;28;20040;-73
2022/03/06 10:14:51;;;;;;;17.77;10.15;;;;;;;-144.65;100.00;64500.88;5073533;28;20608;-71
2022/03/06 10:17:24;;;;;;;22.80;12.68;;;;;;;-144.65;100.00;64500.88;5088724;28;20058;-74
2022/03/06 10:19:54;;;;;;;18.80;10.32;;;;;;;-144.65;100.00;64500.88;5089770;28;20493;-73
2022/03/06 10:22:21;;;;;;;17.50;10.35;;;;;;;-144.65;100.00;64500.88;5088601;28;20499;-72
2022/03/06 10:25:06;;;;;;;20.55;11.50;;;;;;;-144.65;100.00;64500.88;5086790;28;20528;-71
2022/03/06 10:27:54;;;;;;;17.35;10.63;;;;;;;-144.65;100.00;64500.88;5088990;28;20031;-73
2022/03/06 10:30:37;;;;;;;19.27;9.93;;;;;;;-144.65;100.00;64500.88;5088942;28;20067;-72
2022/03/06 10:33:04;;;;;;;17.08;9.13;;;;;;;-144.65;100.00;64500.88;5088125;28;20008;-74
2022/03/06 10:35:41;;;;;;;19.00;9.73;;;;;;;-144.65;100.00;64500.88;5088149;28;20358;-73
2022/03/06 10:38:34;;;;;;;16.65;8.93;;;;;;;-144.65;100.00;64500.88;5088024;28;20016;-73
2022/03/06 10:41:02;;;;;;;18.20;9.00;;;;;;;-144.65;100.00;64500.88;5075315;28;20026;-72
2022/03/06 10:43:33;;;;;;;17.20;10.50;;;;;;;-144.65;100.00;64500.88;5077403;28;20028;-73
2022/03/06 10:46:16;;;;;;;13.98;9.27;;;;;;;-144.65;100.00;64500.88;5088868;28;20150;-73
2022/03/06 10:48:54;;;;;;;16.52;9.20;;;;;;;-144.65;100.00;64500.88;5088989;28;20040;-72
2022/03/06 10:51:20;;;;;;;17.88;9.73;;;;;;;-144.65;100.00;64500.88;5082715;28;20009;-76